sensor_id;sensor_type;location;lat;lon;timestamp;P1;durP1;ratioP1;P2;durP2;ratioP2
6983;SDS011;3532;51.118;7.210;2023-08-08T00:01:34;3.57;;;3.27;;
6983;SDS011;3532;51.118;7.210;2023-08-08T00:04:00;3.20;;;2.90;;
6983;SDS011;3532;51.118;7.210;2023-08-08T00:06:25;4.43;;;3.40;;
6983;SDS011;3532;51.118;7.210;2023-08-08T00:08:51;2.87;;;2.60;;
6983;SDS011;3532;51.118;7.210;2023-08-08T00:11:16;4.90;;;3.23;;
6983;SDS011;3532;51.118;7.210;2023-08-08T00:13:41;4.23;;;2.90;;
6983;SDS011;3532;51.118;7.210;2023-08-08T00:16:06;5.93;;;3.20;;
6983;SDS011;3532;51.118;7.210;2023-08-08T00:18:32;5.30;;;3.50;;
6983;SDS011;3532;51.118;7.210;2023-08-08T00:20:57;3.20;;;2.90;;
6983;SDS011;3532;51.118;7.210;2023-08-08T00:23:22;4.70;;;3.67;;
6983;SDS011;3532;51.118;7.210;2023-08-08T00:25:48;3.63;;;2.97;;
6983;SDS011;3532;51.118;7.210;2023-08-08T00:28:15;4.53;;;3.20;;
6983;SDS011;3532;51.118;7.210;2023-08-08T00:30:41;3.93;;;3.07;;
6983;SDS011;3532;51.118;7.210;2023-08-08T00:33:06;4.47;;;3.00;;
6983;SDS011;3532;51.118;7.210;2023-08-08T00:35:32;4.33;;;3.33;;
6983;SDS011;3532;51.118;7.210;2023-08-08T00:37:57;3.97;;;3.33;;
6983;SDS011;3532;51.118;7.210;2023-08-08T00:40:22;4.83;;;2.90;;
6983;SDS011;3532;51.118;7.210;2023-08-08T00:42:48;4.50;;;3.50;;
6983;SDS011;3532;51.118;7.210;2023-08-08T00:45:13;3.93;;;3.33;;
6983;SDS011;3532;51.118;7.210;2023-08-08T00:47:38;3.27;;;2.93;;
6983;SDS011;3532;51.118;7.210;2023-08-08T00:50:04;3.63;;;2.90;;
6983;SDS011;3532;51.118;7.210;2023-08-08T00:52:29;3.43;;;2.63;;
6983;SDS011;3532;51.118;7.210;2023-08-08T00:54:55;4.07;;;2.80;;
6983;SDS011;3532;51.118;7.210;2023-08-08T00:57:21;3.40;;;2.73;;
6983;SDS011;3532;51.118;7.210;2023-08-08T00:59:46;3.20;;;2.90;;
6983;SDS011;3532;51.118;7.210;2023-08-08T01:02:11;4.17;;;2.67;;
6983;SDS011;3532;51.118;7.210;2023-08-08T01:04:37;4.20;;;2.93;;
6983;SDS011;3532;51.118;7.210;2023-08-08T01:07:08;4.83;;;2.40;;
6983;SDS011;3532;51.118;7.210;2023-08-08T01:12:29;7.03;;;2.93;;
6983;SDS011;3532;51.118;7.210;2023-08-08T01:14:55;3.80;;;3.33;;
6983;SDS011;3532;51.118;7.210;2023-08-08T01:17:21;4.53;;;2.90;;
6983;SDS011;3532;51.118;7.210;2023-08-08T01:19:47;3.23;;;2.93;;
6983;SDS011;3532;51.118;7.210;2023-08-08T01:22:25;3.17;;;2.87;;
6983;SDS011;3532;51.118;7.210;2023-08-08T01:24:54;5.67;;;2.97;;
6983;SDS011;3532;51.118;7.210;2023-08-08T01:27:21;3.73;;;2.80;;
6983;SDS011;3532;51.118;7.210;2023-08-08T01:29:46;4.23;;;3.53;;
6983;SDS011;3532;51.118;7.210;2023-08-08T01:32:12;6.20;;;3.30;;
6983;SDS011;3532;51.118;7.210;2023-08-08T01:34:37;4.53;;;2.80;;
6983;SDS011;3532;51.118;7.210;2023-08-08T01:39:59;4.47;;;2.93;;
6983;SDS011;3532;51.118;7.210;2023-08-08T01:42:25;3.13;;;2.67;;
6983;SDS011;3532;51.118;7.210;2023-08-08T01:44:51;3.53;;;2.60;;
6983;SDS011;3532;51.118;7.210;2023-08-08T01:47:17;3.93;;;2.80;;
6983;SDS011;3532;51.118;7.210;2023-08-08T01:49:43;3.77;;;3.37;;
6983;SDS011;3532;51.118;7.210;2023-08-08T01:52:08;3.93;;;3.30;;
6983;SDS011;3532;51.118;7.210;2023-08-08T01:54:33;3.87;;;3.13;;
6983;SDS011;3532;51.118;7.210;2023-08-08T01:56:59;3.40;;;3.10;;
6983;SDS011;3532;51.118;7.210;2023-08-08T01:59:24;5.37;;;3.30;;
6983;SDS011;3532;51.118;7.210;2023-08-08T02:01:49;3.20;;;2.73;;
6983;SDS011;3532;51.118;7.210;2023-08-08T02:04:15;3.37;;;2.90;;
6983;SDS011;3532;51.118;7.210;2023-08-08T02:06:40;4.90;;;3.40;;
6983;SDS011;3532;51.118;7.210;2023-08-08T02:09:05;4.77;;;3.20;;
6983;SDS011;3532;51.118;7.210;2023-08-08T02:11:32;3.33;;;3.00;;
6983;SDS011;3532;51.118;7.210;2023-08-08T02:13:57;4.47;;;3.57;;
6983;SDS011;3532;51.118;7.210;2023-08-08T02:16:22;5.67;;;3.20;;
6983;SDS011;3532;51.118;7.210;2023-08-08T02:18:47;7.20;;;3.50;;
6983;SDS011;3532;51.118;7.210;2023-08-08T02:21:13;4.03;;;3.17;;
6983;SDS011;3532;51.118;7.210;2023-08-08T02:23:38;4.83;;;3.23;;
6983;SDS011;3532;51.118;7.210;2023-08-08T02:26:03;3.77;;;3.43;;
6983;SDS011;3532;51.118;7.210;2023-08-08T02:28:29;3.60;;;3.23;;
6983;SDS011;3532;51.118;7.210;2023-08-08T02:30:54;4.37;;;3.67;;
6983;SDS011;3532;51.118;7.210;2023-08-08T02:33:20;4.53;;;3.57;;
6983;SDS011;3532;51.118;7.210;2023-08-08T02:35:45;6.37;;;3.53;;
6983;SDS011;3532;51.118;7.210;2023-08-08T02:38:10;4.03;;;3.53;;
6983;SDS011;3532;51.118;7.210;2023-08-08T02:40:36;4.50;;;3.93;;
6983;SDS011;3532;51.118;7.210;2023-08-08T02:43:01;4.73;;;3.63;;
6983;SDS011;3532;51.118;7.210;2023-08-08T02:45:26;6.23;;;3.80;;
6983;SDS011;3532;51.118;7.210;2023-08-08T02:47:52;4.23;;;3.40;;
6983;SDS011;3532;51.118;7.210;2023-08-08T02:50:17;7.07;;;3.90;;
6983;SDS011;3532;51.118;7.210;2023-08-08T02:52:42;5.23;;;3.53;;
6983;SDS011;3532;51.118;7.210;2023-08-08T02:55:08;5.73;;;3.60;;
6983;SDS011;3532;51.118;7.210;2023-08-08T02:57:33;4.00;;;3.53;;
6983;SDS011;3532;51.118;7.210;2023-08-08T02:59:58;4.00;;;3.50;;
6983;SDS011;3532;51.118;7.210;2023-08-08T03:02:24;7.40;;;4.20;;
6983;SDS011;3532;51.118;7.210;2023-08-08T03:04:49;4.60;;;3.50;;
6983;SDS011;3532;51.118;7.210;2023-08-08T03:07:14;5.77;;;3.70;;
6983;SDS011;3532;51.118;7.210;2023-08-08T03:09:40;4.83;;;3.80;;
6983;SDS011;3532;51.118;7.210;2023-08-08T03:12:05;4.87;;;3.27;;
6983;SDS011;3532;51.118;7.210;2023-08-08T03:14:31;3.97;;;3.53;;
6983;SDS011;3532;51.118;7.210;2023-08-08T03:16:56;3.63;;;3.33;;
6983;SDS011;3532;51.118;7.210;2023-08-08T03:19:21;6.63;;;4.30;;
6983;SDS011;3532;51.118;7.210;2023-08-08T03:21:47;4.00;;;3.60;;
6983;SDS011;3532;51.118;7.210;2023-08-08T03:24:12;6.90;;;3.80;;
6983;SDS011;3532;51.118;7.210;2023-08-08T03:26:37;4.60;;;4.13;;
6983;SDS011;3532;51.118;7.210;2023-08-08T03:29:02;6.57;;;4.23;;
6983;SDS011;3532;51.118;7.210;2023-08-08T03:31:28;3.80;;;3.40;;
6983;SDS011;3532;51.118;7.210;2023-08-08T03:33:53;4.23;;;3.83;;
6983;SDS011;3532;51.118;7.210;2023-08-08T03:36:18;3.90;;;3.60;;
6983;SDS011;3532;51.118;7.210;2023-08-08T03:38:45;3.90;;;3.57;;
6983;SDS011;3532;51.118;7.210;2023-08-08T03:41:11;6.70;;;3.60;;
6983;SDS011;3532;51.118;7.210;2023-08-08T03:43:37;4.70;;;3.87;;
6983;SDS011;3532;51.118;7.210;2023-08-08T03:46:05;5.20;;;4.03;;
6983;SDS011;3532;51.118;7.210;2023-08-08T03:48:31;4.67;;;4.27;;
6983;SDS011;3532;51.118;7.210;2023-08-08T03:50:57;4.23;;;3.83;;
6983;SDS011;3532;51.118;7.210;2023-08-08T03:53:22;3.80;;;3.50;;
6983;SDS011;3532;51.118;7.210;2023-08-08T03:55:47;4.30;;;3.20;;
6983;SDS011;3532;51.118;7.210;2023-08-08T03:58:13;5.47;;;3.10;;
6983;SDS011;3532;51.118;7.210;2023-08-08T04:00:38;5.00;;;4.00;;
6983;SDS011;3532;51.118;7.210;2023-08-08T04:03:10;4.43;;;4.00;;
6983;SDS011;3532;51.118;7.210;2023-08-08T04:05:35;4.20;;;3.80;;
6983;SDS011;3532;51.118;7.210;2023-08-08T04:08:01;6.23;;;3.80;;
6983;SDS011;3532;51.118;7.210;2023-08-08T04:10:26;6.27;;;3.77;;
6983;SDS011;3532;51.118;7.210;2023-08-08T04:12:51;5.70;;;4.00;;
6983;SDS011;3532;51.118;7.210;2023-08-08T04:15:17;6.30;;;3.77;;
6983;SDS011;3532;51.118;7.210;2023-08-08T04:17:42;5.63;;;3.87;;
6983;SDS011;3532;51.118;7.210;2023-08-08T04:20:07;9.97;;;3.90;;
6983;SDS011;3532;51.118;7.210;2023-08-08T04:22:34;4.63;;;3.90;;
6983;SDS011;3532;51.118;7.210;2023-08-08T04:25:00;4.67;;;3.80;;
6983;SDS011;3532;51.118;7.210;2023-08-08T04:27:26;6.37;;;4.17;;
6983;SDS011;3532;51.118;7.210;2023-08-08T04:29:51;6.07;;;3.93;;
6983;SDS011;3532;51.118;7.210;2023-08-08T04:32:16;4.37;;;3.47;;
6983;SDS011;3532;51.118;7.210;2023-08-08T04:34:41;5.37;;;3.63;;
6983;SDS011;3532;51.118;7.210;2023-08-08T04:37:07;4.27;;;3.40;;
6983;SDS011;3532;51.118;7.210;2023-08-08T04:39:32;7.00;;;4.37;;
6983;SDS011;3532;51.118;7.210;2023-08-08T04:41:57;6.70;;;3.73;;
6983;SDS011;3532;51.118;7.210;2023-08-08T04:44:23;9.17;;;4.30;;
6983;SDS011;3532;51.118;7.210;2023-08-08T04:46:48;6.53;;;3.83;;
6983;SDS011;3532;51.118;7.210;2023-08-08T04:49:13;4.20;;;3.57;;
6983;SDS011;3532;51.118;7.210;2023-08-08T04:51:39;8.50;;;4.47;;
6983;SDS011;3532;51.118;7.210;2023-08-08T04:54:04;7.83;;;3.73;;
6983;SDS011;3532;51.118;7.210;2023-08-08T04:56:29;8.63;;;3.87;;
6983;SDS011;3532;51.118;7.210;2023-08-08T04:58:55;9.87;;;4.37;;
6983;SDS011;3532;51.118;7.210;2023-08-08T05:01:20;6.50;;;4.13;;
6983;SDS011;3532;51.118;7.210;2023-08-08T05:03:45;5.80;;;3.90;;
6983;SDS011;3532;51.118;7.210;2023-08-08T05:06:11;6.93;;;4.70;;
6983;SDS011;3532;51.118;7.210;2023-08-08T05:08:36;6.40;;;3.83;;
6983;SDS011;3532;51.118;7.210;2023-08-08T05:11:01;8.17;;;4.00;;
6983;SDS011;3532;51.118;7.210;2023-08-08T05:13:27;7.30;;;4.30;;
6983;SDS011;3532;51.118;7.210;2023-08-08T05:15:52;4.23;;;3.67;;
6983;SDS011;3532;51.118;7.210;2023-08-08T05:18:17;7.67;;;4.00;;
6983;SDS011;3532;51.118;7.210;2023-08-08T05:20:43;6.43;;;4.37;;
6983;SDS011;3532;51.118;7.210;2023-08-08T05:23:08;6.03;;;4.00;;
6983;SDS011;3532;51.118;7.210;2023-08-08T05:25:33;7.23;;;4.97;;
6983;SDS011;3532;51.118;7.210;2023-08-08T05:27:59;9.83;;;4.60;;
6983;SDS011;3532;51.118;7.210;2023-08-08T05:30:24;9.80;;;4.37;;
6983;SDS011;3532;51.118;7.210;2023-08-08T05:32:49;5.87;;;4.50;;
6983;SDS011;3532;51.118;7.210;2023-08-08T05:35:15;4.90;;;4.40;;
6983;SDS011;3532;51.118;7.210;2023-08-08T05:37:40;5.73;;;4.63;;
6983;SDS011;3532;51.118;7.210;2023-08-08T05:40:06;7.77;;;4.73;;
6983;SDS011;3532;51.118;7.210;2023-08-08T05:42:32;9.67;;;4.13;;
6983;SDS011;3532;51.118;7.210;2023-08-08T05:44:57;5.30;;;4.27;;
6983;SDS011;3532;51.118;7.210;2023-08-08T05:47:22;5.60;;;4.43;;
6983;SDS011;3532;51.118;7.210;2023-08-08T05:49:48;6.50;;;4.23;;
6983;SDS011;3532;51.118;7.210;2023-08-08T05:52:13;8.03;;;4.37;;
6983;SDS011;3532;51.118;7.210;2023-08-08T05:54:38;6.77;;;4.43;;
6983;SDS011;3532;51.118;7.210;2023-08-08T05:57:04;9.40;;;4.57;;
6983;SDS011;3532;51.118;7.210;2023-08-08T05:59:29;7.23;;;4.57;;
6983;SDS011;3532;51.118;7.210;2023-08-08T06:01:55;7.00;;;4.20;;
6983;SDS011;3532;51.118;7.210;2023-08-08T06:04:20;8.50;;;5.10;;
6983;SDS011;3532;51.118;7.210;2023-08-08T06:06:45;10.53;;;5.53;;
6983;SDS011;3532;51.118;7.210;2023-08-08T06:09:13;7.03;;;4.23;;
6983;SDS011;3532;51.118;7.210;2023-08-08T06:11:39;6.93;;;5.00;;
6983;SDS011;3532;51.118;7.210;2023-08-08T06:14:04;4.73;;;4.17;;
6983;SDS011;3532;51.118;7.210;2023-08-08T06:16:29;7.73;;;4.47;;
6983;SDS011;3532;51.118;7.210;2023-08-08T06:18:55;6.67;;;4.43;;
6983;SDS011;3532;51.118;7.210;2023-08-08T06:21:20;8.63;;;4.50;;
6983;SDS011;3532;51.118;7.210;2023-08-08T06:23:45;11.33;;;4.57;;
6983;SDS011;3532;51.118;7.210;2023-08-08T06:26:12;9.83;;;4.37;;
6983;SDS011;3532;51.118;7.210;2023-08-08T06:28:38;7.23;;;4.90;;
6983;SDS011;3532;51.118;7.210;2023-08-08T06:31:03;11.47;;;4.80;;
6983;SDS011;3532;51.118;7.210;2023-08-08T06:33:28;7.60;;;5.20;;
6983;SDS011;3532;51.118;7.210;2023-08-08T06:35:55;9.03;;;5.47;;
6983;SDS011;3532;51.118;7.210;2023-08-08T06:38:21;8.93;;;5.43;;
6983;SDS011;3532;51.118;7.210;2023-08-08T06:40:46;8.07;;;5.10;;
6983;SDS011;3532;51.118;7.210;2023-08-08T06:43:11;10.77;;;5.97;;
6983;SDS011;3532;51.118;7.210;2023-08-08T06:45:37;10.03;;;6.30;;
6983;SDS011;3532;51.118;7.210;2023-08-08T06:48:03;9.97;;;5.83;;
6983;SDS011;3532;51.118;7.210;2023-08-08T06:50:29;8.13;;;5.87;;
6983;SDS011;3532;51.118;7.210;2023-08-08T06:52:54;10.67;;;6.30;;
6983;SDS011;3532;51.118;7.210;2023-08-08T06:55:20;12.17;;;6.20;;
6983;SDS011;3532;51.118;7.210;2023-08-08T06:57:46;8.93;;;6.27;;
6983;SDS011;3532;51.118;7.210;2023-08-08T07:00:11;11.37;;;7.03;;
6983;SDS011;3532;51.118;7.210;2023-08-08T07:02:38;9.37;;;6.17;;
6983;SDS011;3532;51.118;7.210;2023-08-08T07:05:03;9.87;;;5.67;;
6983;SDS011;3532;51.118;7.210;2023-08-08T07:07:29;9.70;;;6.47;;
6983;SDS011;3532;51.118;7.210;2023-08-08T07:09:55;9.13;;;6.03;;
6983;SDS011;3532;51.118;7.210;2023-08-08T07:12:21;11.87;;;5.80;;
6983;SDS011;3532;51.118;7.210;2023-08-08T07:14:46;8.07;;;5.67;;
6983;SDS011;3532;51.118;7.210;2023-08-08T07:17:11;8.27;;;5.43;;
6983;SDS011;3532;51.118;7.210;2023-08-08T07:19:37;10.37;;;6.50;;
6983;SDS011;3532;51.118;7.210;2023-08-08T07:22:02;9.97;;;4.97;;
6983;SDS011;3532;51.118;7.210;2023-08-08T07:24:28;9.90;;;5.63;;
6983;SDS011;3532;51.118;7.210;2023-08-08T07:26:54;14.07;;;5.43;;
6983;SDS011;3532;51.118;7.210;2023-08-08T07:29:20;9.93;;;5.57;;
6983;SDS011;3532;51.118;7.210;2023-08-08T07:31:46;8.83;;;5.57;;
6983;SDS011;3532;51.118;7.210;2023-08-08T07:34:11;6.00;;;5.10;;
6983;SDS011;3532;51.118;7.210;2023-08-08T07:36:36;10.63;;;5.83;;
6983;SDS011;3532;51.118;7.210;2023-08-08T07:39:02;8.03;;;5.73;;
6983;SDS011;3532;51.118;7.210;2023-08-08T07:41:28;11.67;;;5.93;;
6983;SDS011;3532;51.118;7.210;2023-08-08T07:43:55;10.73;;;5.53;;
6983;SDS011;3532;51.118;7.210;2023-08-08T07:46:20;11.53;;;5.70;;
6983;SDS011;3532;51.118;7.210;2023-08-08T07:48:45;11.20;;;5.90;;
6983;SDS011;3532;51.118;7.210;2023-08-08T07:51:11;7.30;;;5.87;;
6983;SDS011;3532;51.118;7.210;2023-08-08T07:53:36;9.90;;;6.50;;
6983;SDS011;3532;51.118;7.210;2023-08-08T07:56:01;10.97;;;5.90;;
6983;SDS011;3532;51.118;7.210;2023-08-08T07:58:27;14.07;;;8.10;;
6983;SDS011;3532;51.118;7.210;2023-08-08T08:00:52;11.67;;;6.97;;
6983;SDS011;3532;51.118;7.210;2023-08-08T08:03:18;10.13;;;7.77;;
6983;SDS011;3532;51.118;7.210;2023-08-08T08:05:44;9.23;;;7.07;;
6983;SDS011;3532;51.118;7.210;2023-08-08T08:08:09;14.60;;;7.37;;
6983;SDS011;3532;51.118;7.210;2023-08-08T08:10:34;18.70;;;7.40;;
6983;SDS011;3532;51.118;7.210;2023-08-08T08:13:00;7.00;;;6.17;;
6983;SDS011;3532;51.118;7.210;2023-08-08T08:15:25;9.10;;;6.37;;
6983;SDS011;3532;51.118;7.210;2023-08-08T08:17:51;9.63;;;6.93;;
6983;SDS011;3532;51.118;7.210;2023-08-08T08:20:16;12.03;;;6.90;;
6983;SDS011;3532;51.118;7.210;2023-08-08T08:22:42;11.97;;;6.80;;
6983;SDS011;3532;51.118;7.210;2023-08-08T08:25:07;12.13;;;6.90;;
6983;SDS011;3532;51.118;7.210;2023-08-08T08:27:34;9.67;;;5.43;;
6983;SDS011;3532;51.118;7.210;2023-08-08T08:30:00;9.57;;;5.80;;
6983;SDS011;3532;51.118;7.210;2023-08-08T08:32:26;12.17;;;6.17;;
6983;SDS011;3532;51.118;7.210;2023-08-08T08:34:51;11.67;;;5.77;;
6983;SDS011;3532;51.118;7.210;2023-08-08T08:37:16;9.40;;;6.20;;
6983;SDS011;3532;51.118;7.210;2023-08-08T08:39:41;10.53;;;5.70;;
6983;SDS011;3532;51.118;7.210;2023-08-08T08:42:07;11.67;;;6.10;;
6983;SDS011;3532;51.118;7.210;2023-08-08T08:44:34;8.93;;;5.90;;
6983;SDS011;3532;51.118;7.210;2023-08-08T08:47:01;6.33;;;5.37;;
6983;SDS011;3532;51.118;7.210;2023-08-08T08:49:28;7.77;;;5.67;;
6983;SDS011;3532;51.118;7.210;2023-08-08T08:51:55;11.57;;;5.90;;
6983;SDS011;3532;51.118;7.210;2023-08-08T08:54:21;7.97;;;5.83;;
6983;SDS011;3532;51.118;7.210;2023-08-08T08:56:47;11.10;;;6.40;;
6983;SDS011;3532;51.118;7.210;2023-08-08T08:59:12;7.90;;;5.50;;
6983;SDS011;3532;51.118;7.210;2023-08-08T09:01:37;8.90;;;5.23;;
6983;SDS011;3532;51.118;7.210;2023-08-08T09:04:03;8.50;;;5.53;;
6983;SDS011;3532;51.118;7.210;2023-08-08T09:06:30;9.57;;;6.13;;
6983;SDS011;3532;51.118;7.210;2023-08-08T09:08:56;13.37;;;6.70;;
6983;SDS011;3532;51.118;7.210;2023-08-08T09:11:22;7.77;;;5.00;;
6983;SDS011;3532;51.118;7.210;2023-08-08T09:13:47;8.53;;;5.70;;
6983;SDS011;3532;51.118;7.210;2023-08-08T09:16:13;7.67;;;5.10;;
6983;SDS011;3532;51.118;7.210;2023-08-08T09:18:38;9.67;;;5.80;;
6983;SDS011;3532;51.118;7.210;2023-08-08T09:21:06;12.03;;;6.90;;
6983;SDS011;3532;51.118;7.210;2023-08-08T09:23:32;7.63;;;6.17;;
6983;SDS011;3532;51.118;7.210;2023-08-08T09:25:57;9.43;;;6.37;;
6983;SDS011;3532;51.118;7.210;2023-08-08T09:28:23;6.47;;;5.80;;
6983;SDS011;3532;51.118;7.210;2023-08-08T09:30:48;7.10;;;6.23;;
6983;SDS011;3532;51.118;7.210;2023-08-08T09:33:13;11.67;;;6.73;;
6983;SDS011;3532;51.118;7.210;2023-08-08T09:35:39;8.33;;;6.00;;
6983;SDS011;3532;51.118;7.210;2023-08-08T09:38:04;11.87;;;7.67;;
6983;SDS011;3532;51.118;7.210;2023-08-08T09:40:29;9.93;;;7.13;;
6983;SDS011;3532;51.118;7.210;2023-08-08T09:42:56;13.00;;;6.97;;
6983;SDS011;3532;51.118;7.210;2023-08-08T09:45:21;9.00;;;6.37;;
6983;SDS011;3532;51.118;7.210;2023-08-08T09:47:49;10.53;;;8.43;;
6983;SDS011;3532;51.118;7.210;2023-08-08T09:50:15;10.37;;;7.40;;
6983;SDS011;3532;51.118;7.210;2023-08-08T09:52:40;11.77;;;7.80;;
6983;SDS011;3532;51.118;7.210;2023-08-08T09:55:06;8.63;;;7.70;;
6983;SDS011;3532;51.118;7.210;2023-08-08T09:57:32;10.63;;;7.30;;
6983;SDS011;3532;51.118;7.210;2023-08-08T09:59:58;8.97;;;7.23;;
6983;SDS011;3532;51.118;7.210;2023-08-08T10:02:23;13.17;;;8.10;;
6983;SDS011;3532;51.118;7.210;2023-08-08T10:04:48;11.23;;;7.53;;
6983;SDS011;3532;51.118;7.210;2023-08-08T10:07:14;13.80;;;6.97;;
6983;SDS011;3532;51.118;7.210;2023-08-08T10:09:40;10.63;;;6.13;;
6983;SDS011;3532;51.118;7.210;2023-08-08T10:12:05;9.63;;;7.03;;
6983;SDS011;3532;51.118;7.210;2023-08-08T10:14:31;12.77;;;6.60;;
6983;SDS011;3532;51.118;7.210;2023-08-08T10:16:57;9.87;;;6.73;;
6983;SDS011;3532;51.118;7.210;2023-08-08T10:19:23;10.70;;;8.30;;
6983;SDS011;3532;51.118;7.210;2023-08-08T10:21:54;7.90;;;5.90;;
6983;SDS011;3532;51.118;7.210;2023-08-08T10:24:21;7.90;;;7.03;;
6983;SDS011;3532;51.118;7.210;2023-08-08T10:26:59;11.43;;;7.13;;
6983;SDS011;3532;51.118;7.210;2023-08-08T10:29:27;7.93;;;7.20;;
6983;SDS011;3532;51.118;7.210;2023-08-08T10:31:58;7.50;;;6.23;;
6983;SDS011;3532;51.118;7.210;2023-08-08T10:37:04;9.67;;;6.63;;
6983;SDS011;3532;51.118;7.210;2023-08-08T10:39:30;12.73;;;7.23;;
6983;SDS011;3532;51.118;7.210;2023-08-08T10:41:59;10.67;;;6.27;;
6983;SDS011;3532;51.118;7.210;2023-08-08T10:44:26;7.93;;;7.17;;
6983;SDS011;3532;51.118;7.210;2023-08-08T10:46:51;13.87;;;7.70;;
6983;SDS011;3532;51.118;7.210;2023-08-08T10:49:18;9.97;;;7.13;;
6983;SDS011;3532;51.118;7.210;2023-08-08T10:51:44;8.13;;;7.17;;
6983;SDS011;3532;51.118;7.210;2023-08-08T10:54:18;12.10;;;7.47;;
6983;SDS011;3532;51.118;7.210;2023-08-08T10:56:48;11.37;;;7.10;;
6983;SDS011;3532;51.118;7.210;2023-08-08T10:59:15;10.17;;;6.37;;
6983;SDS011;3532;51.118;7.210;2023-08-08T11:01:44;11.13;;;6.97;;
6983;SDS011;3532;51.118;7.210;2023-08-08T11:04:10;8.93;;;6.37;;
6983;SDS011;3532;51.118;7.210;2023-08-08T11:06:36;7.20;;;5.30;;
6983;SDS011;3532;51.118;7.210;2023-08-08T11:09:02;7.40;;;5.83;;
6983;SDS011;3532;51.118;7.210;2023-08-08T11:11:35;9.47;;;5.30;;
6983;SDS011;3532;51.118;7.210;2023-08-08T11:14:08;7.57;;;5.30;;
6983;SDS011;3532;51.118;7.210;2023-08-08T11:16:34;8.70;;;5.33;;
6983;SDS011;3532;51.118;7.210;2023-08-08T11:18:59;8.40;;;5.00;;
6983;SDS011;3532;51.118;7.210;2023-08-08T11:21:25;6.87;;;5.17;;
6983;SDS011;3532;51.118;7.210;2023-08-08T11:23:50;9.27;;;5.40;;
6983;SDS011;3532;51.118;7.210;2023-08-08T11:26:19;5.90;;;5.40;;
6983;SDS011;3532;51.118;7.210;2023-08-08T11:28:51;8.10;;;5.93;;
6983;SDS011;3532;51.118;7.210;2023-08-08T11:31:18;7.43;;;5.13;;
6983;SDS011;3532;51.118;7.210;2023-08-08T11:33:46;8.30;;;5.63;;
6983;SDS011;3532;51.118;7.210;2023-08-08T11:36:13;9.00;;;5.47;;
6983;SDS011;3532;51.118;7.210;2023-08-08T11:38:39;8.07;;;5.37;;
6983;SDS011;3532;51.118;7.210;2023-08-08T11:41:05;8.20;;;5.17;;
6983;SDS011;3532;51.118;7.210;2023-08-08T11:43:31;6.83;;;5.37;;
6983;SDS011;3532;51.118;7.210;2023-08-08T11:45:59;7.37;;;4.67;;
6983;SDS011;3532;51.118;7.210;2023-08-08T11:48:25;8.17;;;4.83;;
6983;SDS011;3532;51.118;7.210;2023-08-08T11:50:52;8.10;;;4.87;;
6983;SDS011;3532;51.118;7.210;2023-08-08T11:53:18;6.23;;;4.23;;
6983;SDS011;3532;51.118;7.210;2023-08-08T11:55:44;9.83;;;4.73;;
6983;SDS011;3532;51.118;7.210;2023-08-08T11:58:12;6.27;;;4.10;;
6983;SDS011;3532;51.118;7.210;2023-08-08T12:00:39;10.00;;;3.80;;
6983;SDS011;3532;51.118;7.210;2023-08-08T12:03:04;5.87;;;3.73;;
6983;SDS011;3532;51.118;7.210;2023-08-08T12:05:36;6.00;;;3.60;;
6983;SDS011;3532;51.118;7.210;2023-08-08T12:08:04;4.03;;;3.40;;
6983;SDS011;3532;51.118;7.210;2023-08-08T12:10:30;6.70;;;3.53;;
6983;SDS011;3532;51.118;7.210;2023-08-08T12:12:56;6.10;;;3.83;;
6983;SDS011;3532;51.118;7.210;2023-08-08T12:15:27;6.67;;;3.50;;
6983;SDS011;3532;51.118;7.210;2023-08-08T12:18:00;5.60;;;3.90;;
6983;SDS011;3532;51.118;7.210;2023-08-08T12:20:27;4.60;;;3.90;;
6983;SDS011;3532;51.118;7.210;2023-08-08T12:22:54;6.77;;;3.80;;
6983;SDS011;3532;51.118;7.210;2023-08-08T12:25:20;7.33;;;3.90;;
6983;SDS011;3532;51.118;7.210;2023-08-08T12:27:45;6.10;;;3.37;;
6983;SDS011;3532;51.118;7.210;2023-08-08T12:30:10;4.00;;;3.50;;
6983;SDS011;3532;51.118;7.210;2023-08-08T12:32:36;12.20;;;4.37;;
6983;SDS011;3532;51.118;7.210;2023-08-08T12:35:01;6.57;;;4.33;;
6983;SDS011;3532;51.118;7.210;2023-08-08T12:37:26;4.70;;;3.23;;
6983;SDS011;3532;51.118;7.210;2023-08-08T12:39:52;6.67;;;3.63;;
6983;SDS011;3532;51.118;7.210;2023-08-08T12:42:17;5.83;;;3.87;;
6983;SDS011;3532;51.118;7.210;2023-08-08T12:44:43;5.80;;;3.47;;
6983;SDS011;3532;51.118;7.210;2023-08-08T12:47:08;7.33;;;3.80;;
6983;SDS011;3532;51.118;7.210;2023-08-08T12:49:33;8.37;;;4.03;;
6983;SDS011;3532;51.118;7.210;2023-08-08T12:51:59;13.33;;;4.43;;
6983;SDS011;3532;51.118;7.210;2023-08-08T12:54:24;4.73;;;3.70;;
6983;SDS011;3532;51.118;7.210;2023-08-08T12:56:49;4.93;;;3.90;;
6983;SDS011;3532;51.118;7.210;2023-08-08T12:59:15;4.93;;;4.10;;
6983;SDS011;3532;51.118;7.210;2023-08-08T13:01:40;4.50;;;3.73;;
6983;SDS011;3532;51.118;7.210;2023-08-08T13:04:05;5.30;;;3.97;;
6983;SDS011;3532;51.118;7.210;2023-08-08T13:06:31;9.03;;;4.07;;
6983;SDS011;3532;51.118;7.210;2023-08-08T13:08:56;4.27;;;3.70;;
6983;SDS011;3532;51.118;7.210;2023-08-08T13:11:21;4.73;;;3.63;;
6983;SDS011;3532;51.118;7.210;2023-08-08T13:13:47;4.63;;;3.93;;
6983;SDS011;3532;51.118;7.210;2023-08-08T13:16:12;4.80;;;3.67;;
6983;SDS011;3532;51.118;7.210;2023-08-08T13:18:37;8.43;;;4.53;;
6983;SDS011;3532;51.118;7.210;2023-08-08T13:21:03;7.67;;;4.27;;
6983;SDS011;3532;51.118;7.210;2023-08-08T13:23:28;7.53;;;3.80;;
6983;SDS011;3532;51.118;7.210;2023-08-08T13:25:53;5.97;;;4.10;;
6983;SDS011;3532;51.118;7.210;2023-08-08T13:28:19;4.90;;;4.40;;
6983;SDS011;3532;51.118;7.210;2023-08-08T13:30:44;4.27;;;3.87;;
6983;SDS011;3532;51.118;7.210;2023-08-08T13:33:09;10.03;;;4.77;;
6983;SDS011;3532;51.118;7.210;2023-08-08T13:35:35;5.43;;;4.20;;
6983;SDS011;3532;51.118;7.210;2023-08-08T13:38:00;5.23;;;4.60;;
6983;SDS011;3532;51.118;7.210;2023-08-08T13:40:26;4.27;;;3.87;;
6983;SDS011;3532;51.118;7.210;2023-08-08T13:42:51;8.57;;;5.47;;
6983;SDS011;3532;51.118;7.210;2023-08-08T13:45:17;8.83;;;5.10;;
6983;SDS011;3532;51.118;7.210;2023-08-08T13:47:44;8.17;;;4.67;;
6983;SDS011;3532;51.118;7.210;2023-08-08T13:50:09;7.27;;;4.93;;
6983;SDS011;3532;51.118;7.210;2023-08-08T13:52:34;6.30;;;5.53;;
6983;SDS011;3532;51.118;7.210;2023-08-08T13:55:00;7.37;;;5.90;;
6983;SDS011;3532;51.118;7.210;2023-08-08T13:57:26;5.77;;;5.10;;
6983;SDS011;3532;51.118;7.210;2023-08-08T13:59:51;7.30;;;4.90;;
6983;SDS011;3532;51.118;7.210;2023-08-08T14:02:16;8.80;;;5.13;;
6983;SDS011;3532;51.118;7.210;2023-08-08T14:04:43;7.07;;;5.50;;
6983;SDS011;3532;51.118;7.210;2023-08-08T14:07:09;7.00;;;5.20;;
6983;SDS011;3532;51.118;7.210;2023-08-08T14:09:34;6.30;;;4.90;;
6983;SDS011;3532;51.118;7.210;2023-08-08T14:11:59;6.37;;;4.63;;
6983;SDS011;3532;51.118;7.210;2023-08-08T14:14:25;6.67;;;4.97;;
6983;SDS011;3532;51.118;7.210;2023-08-08T14:16:50;6.50;;;5.10;;
6983;SDS011;3532;51.118;7.210;2023-08-08T14:19:15;8.90;;;5.53;;
6983;SDS011;3532;51.118;7.210;2023-08-08T14:21:42;6.73;;;5.20;;
6983;SDS011;3532;51.118;7.210;2023-08-08T14:24:07;6.53;;;5.20;;
6983;SDS011;3532;51.118;7.210;2023-08-08T14:26:33;7.73;;;5.13;;
6983;SDS011;3532;51.118;7.210;2023-08-08T14:28:58;7.03;;;5.43;;
6983;SDS011;3532;51.118;7.210;2023-08-08T14:31:23;6.87;;;4.97;;
6983;SDS011;3532;51.118;7.210;2023-08-08T14:33:49;8.53;;;5.83;;
6983;SDS011;3532;51.118;7.210;2023-08-08T14:36:14;6.30;;;4.97;;
6983;SDS011;3532;51.118;7.210;2023-08-08T14:38:39;5.50;;;5.00;;
6983;SDS011;3532;51.118;7.210;2023-08-08T14:41:05;5.47;;;4.97;;
6983;SDS011;3532;51.118;7.210;2023-08-08T14:43:30;7.80;;;4.70;;
6983;SDS011;3532;51.118;7.210;2023-08-08T14:45:56;7.57;;;4.87;;
6983;SDS011;3532;51.118;7.210;2023-08-08T14:48:21;5.27;;;4.47;;
6983;SDS011;3532;51.118;7.210;2023-08-08T14:50:46;5.40;;;4.20;;
6983;SDS011;3532;51.118;7.210;2023-08-08T14:53:12;5.50;;;4.10;;
6983;SDS011;3532;51.118;7.210;2023-08-08T14:55:38;5.57;;;3.77;;
6983;SDS011;3532;51.118;7.210;2023-08-08T14:58:03;5.37;;;3.23;;
6983;SDS011;3532;51.118;7.210;2023-08-08T15:00:29;4.37;;;3.37;;
6983;SDS011;3532;51.118;7.210;2023-08-08T15:02:54;6.57;;;3.90;;
6983;SDS011;3532;51.118;7.210;2023-08-08T15:05:19;4.43;;;3.40;;
6983;SDS011;3532;51.118;7.210;2023-08-08T15:07:45;5.23;;;3.43;;
6983;SDS011;3532;51.118;7.210;2023-08-08T15:10:10;6.20;;;3.70;;
6983;SDS011;3532;51.118;7.210;2023-08-08T15:12:36;5.67;;;3.57;;